Time;durP1;ratioP1;P1;durP2;ratioP2;P2;SDS_P1;SDS_P2;PMS_P1;PMS_P2;Temp;Humidity;BMP_temperature;BMP_pressure;BME280_temperature;BME280_humidity;BME280_pressure;Samples;Min_cycle;Max_cycle;Signal;HPM_P1;HPM_P2
2023/12/28 00:00:13;;;;;;;6.55;2.70;;;;;;;;;;5102811;28;20483;-81
2023/12/28 00:02:40;;;;;;;9.27;3.15;;;;;;;;;;5106021;28;20032;-79
2023/12/28 00:05:06;;;;;;;5.93;2.38;;;;;;;;;;5112197;28;20024;-75
2023/12/28 00:07:33;;;;;;;6.38;2.85;;;;;;;;;;5116720;28;20012;-75
2023/12/28 00:09:59;;;;;;;5.95;2.65;;;;;;;;;;5114720;28;20036;-78
2023/12/28 00:12:25;;;;;;;9.90;3.45;;;;;;;;;;5113020;28;20024;-77
2023/12/28 00:14:51;;;;;;;7.65;2.63;;;;;;;;;;5115485;28;20035;-80
2023/12/28 00:17:17;;;;;;;13.93;2.88;;;;;;;;;;5103332;28;20030;-78
2023/12/28 00:19:43;;;;;;;7.45;2.80;;;;;;;;;;5103037;28;20028;-78
2023/12/28 00:22:09;;;;;;;8.45;2.85;;;;;;;;;;5083310;28;20495;-77
2023/12/28 00:24:35;;;;;;;11.15;2.75;;;;;;;;;;5102869;28;20067;-77
2023/12/28 00:27:01;;;;;;;8.15;2.95;;;;;;;;;;5086377;28;20054;-76
2023/12/28 00:29:28;;;;;;;7.97;2.95;;;;;;;;;;5101256;28;20107;-78
2023/12/28 00:31:54;;;;;;;7.35;3.03;;;;;;;;;;5093108;28;20031;-75
2023/12/28 00:34:20;;;;;;;6.90;2.83;;;;;;;;;;5117663;28;20042;-76
2023/12/28 00:36:46;;;;;;;10.88;2.83;;;;;;;;;;5117065;28;20023;-74
2023/12/28 00:39:12;;;;;;;10.23;3.20;;;;;;;;;;5100255;28;20042;-74
2023/12/28 00:41:38;;;;;;;14.18;2.75;;;;;;;;;;5099887;28;20047;-76
2023/12/28 00:44:07;;;;;;;7.45;2.90;;;;;;;;;;5117848;28;20023;-74
2023/12/28 00:46:33;;;;;;;6.03;2.90;;;;;;;;;;5100167;28;20070;-76
2023/12/28 00:48:59;;;;;;;9.45;3.10;;;;;;;;;;5114437;28;20080;-79
2023/12/28 00:51:25;;;;;;;13.93;3.28;;;;;;;;;;5113100;28;20012;-78
2023/12/28 00:53:51;;;;;;;8.80;2.55;;;;;;;;;;5114103;28;20036;-76
2023/12/28 00:56:17;;;;;;;9.00;3.10;;;;;;;;;;5115954;28;20054;-78
2023/12/28 00:58:43;;;;;;;6.70;2.72;;;;;;;;;;5118446;28;20039;-77
2023/12/28 01:01:10;;;;;;;11.07;3.00;;;;;;;;;;5119526;28;20039;-78
2023/12/28 01:03:36;;;;;;;8.40;3.00;;;;;;;;;;5129961;28;20062;-77
2023/12/28 01:06:02;;;;;;;9.75;3.15;;;;;;;;;;5123145;28;20028;-77
2023/12/28 01:08:28;;;;;;;5.57;2.78;;;;;;;;;;5133873;22;20505;-76
2023/12/28 01:10:54;;;;;;;12.00;3.20;;;;;;;;;;5095121;28;20068;-75
2023/12/28 01:13:20;;;;;;;10.32;3.78;;;;;;;;;;5095594;28;20129;-74
2023/12/28 01:15:46;;;;;;;6.15;3.05;;;;;;;;;;5095521;28;20111;-75
2023/12/28 01:18:12;;;;;;;9.18;3.65;;;;;;;;;;5095154;28;20077;-77
2023/12/28 01:20:38;;;;;;;10.43;3.30;;;;;;;;;;5114840;28;20366;-76
2023/12/28 01:23:04;;;;;;;14.43;3.28;;;;;;;;;;5115089;28;20023;-76
2023/12/28 01:25:30;;;;;;;10.00;3.15;;;;;;;;;;5115115;28;20020;-76
2023/12/28 01:27:56;;;;;;;11.35;3.72;;;;;;;;;;5096912;28;20423;-75
2023/12/28 01:30:22;;;;;;;8.45;3.60;;;;;;;;;;5115081;28;20016;-74
2023/12/28 01:32:48;;;;;;;9.73;3.25;;;;;;;;;;5114791;28;20027;-75
2023/12/28 01:35:14;;;;;;;7.60;2.90;;;;;;;;;;5115062;28;20030;-76
2023/12/28 01:37:40;;;;;;;8.77;3.53;;;;;;;;;;5115941;28;20034;-75
2023/12/28 01:40:06;;;;;;;8.38;3.17;;;;;;;;;;5116517;28;20032;-76
2023/12/28 01:42:32;;;;;;;10.40;3.40;;;;;;;;;;5115370;28;20382;-75
2023/12/28 01:44:58;;;;;;;9.45;3.42;;;;;;;;;;5116908;28;20028;-75
2023/12/28 01:47:27;;;;;;;11.63;3.40;;;;;;;;;;5115250;28;20028;-75
2023/12/28 01:49:54;;;;;;;10.00;3.80;;;;;;;;;;5112948;28;20529;-76
2023/12/28 01:52:20;;;;;;;9.38;3.33;;;;;;;;;;5115139;28;20036;-74
2023/12/28 01:54:46;;;;;;;10.00;3.88;;;;;;;;;;5115228;28;20027;-74
2023/12/28 01:57:13;;;;;;;10.20;3.30;;;;;;;;;;5114604;28;20104;-75
2023/12/28 01:59:40;;;;;;;7.63;3.40;;;;;;;;;;5114437;28;20034;-75
2023/12/28 02:02:06;;;;;;;8.55;3.53;;;;;;;;;;5113679;28;20019;-75
2023/12/28 02:04:32;;;;;;;9.10;3.47;;;;;;;;;;5110160;28;20404;-75
2023/12/28 02:07:00;;;;;;;10.70;3.92;;;;;;;;;;5092848;28;20474;-76
2023/12/28 02:09:26;;;;;;;7.82;3.83;;;;;;;;;;5093598;28;20036;-75
2023/12/28 02:11:52;;;;;;;11.65;3.78;;;;;;;;;;5108518;28;20086;-75
2023/12/28 02:14:19;;;;;;;10.30;3.78;;;;;;;;;;5114130;28;20028;-76
2023/12/28 02:16:50;;;;;;;13.50;3.72;;;;;;;;;;5093940;28;20478;-74
2023/12/28 02:19:25;;;;;;;5.75;3.28;;;;;;;;;;5094176;28;20039;-74
2023/12/28 02:21:52;;;;;;;8.63;3.60;;;;;;;;;;5093347;28;20028;-74
2023/12/28 02:24:18;;;;;;;10.23;3.67;;;;;;;;;;5093475;28;20032;-74
2023/12/28 02:26:44;;;;;;;13.90;4.20;;;;;;;;;;5094049;28;20600;-75
2023/12/28 02:29:10;;;;;;;9.52;3.75;;;;;;;;;;5093455;28;20315;-74
2023/12/28 02:31:38;;;;;;;8.95;3.58;;;;;;;;;;5093009;28;20391;-75
2023/12/28 02:34:11;;;;;;;9.98;3.70;;;;;;;;;;5093373;28;20035;-74
2023/12/28 02:36:38;;;;;;;9.52;3.67;;;;;;;;;;5093720;28;20051;-74
2023/12/28 02:39:05;;;;;;;11.57;3.78;;;;;;;;;;5091550;28;20032;-74
2023/12/28 02:41:31;;;;;;;9.88;3.47;;;;;;;;;;5092967;28;20417;-75
2023/12/28 02:43:57;;;;;;;10.27;3.85;;;;;;;;;;5093069;28;20028;-75
2023/12/28 02:46:23;;;;;;;8.07;3.40;;;;;;;;;;5093116;28;20016;-74
2023/12/28 02:48:49;;;;;;;9.93;4.15;;;;;;;;;;5093105;28;20352;-75
2023/12/28 02:51:16;;;;;;;8.13;3.75;;;;;;;;;;5092600;28;20432;-74
2023/12/28 02:53:42;;;;;;;14.57;4.10;;;;;;;;;;5093360;28;20039;-73
2023/12/28 02:56:08;;;;;;;5.93;4.05;;;;;;;;;;5075115;28;20042;-74
2023/12/28 02:58:34;;;;;;;8.27;3.42;;;;;;;;;;5092795;28;20028;-74
2023/12/28 03:01:00;;;;;;;9.18;3.80;;;;;;;;;;5092230;28;20031;-74
2023/12/28 03:03:26;;;;;;;8.52;3.55;;;;;;;;;;5092842;28;20465;-74
2023/12/28 03:05:52;;;;;;;8.50;3.92;;;;;;;;;;5093574;28;20016;-75
2023/12/28 03:08:18;;;;;;;8.20;3.75;;;;;;;;;;5092614;28;20024;-74
2023/12/28 03:10:44;;;;;;;10.20;4.28;;;;;;;;;;5092621;28;20020;-74
2023/12/28 03:13:10;;;;;;;11.55;4.38;;;;;;;;;;5092136;28;20016;-74
2023/12/28 03:15:36;;;;;;;10.02;4.07;;;;;;;;;;5092391;28;20580;-74
2023/12/28 03:18:02;;;;;;;7.05;3.60;;;;;;;;;;5092376;28;20020;-74
2023/12/28 03:20:28;;;;;;;10.52;3.85;;;;;;;;;;5092541;28;20432;-74
2023/12/28 03:22:54;;;;;;;10.70;4.47;;;;;;;;;;5091771;28;20076;-74
2023/12/28 03:25:20;;;;;;;9.55;3.72;;;;;;;;;;5092289;28;20020;-75
2023/12/28 03:27:46;;;;;;;11.20;3.83;;;;;;;;;;5093446;28;20024;-72
2023/12/28 03:30:12;;;;;;;11.43;3.95;;;;;;;;;;5092509;28;20024;-72
2023/12/28 03:32:38;;;;;;;12.82;3.90;;;;;;;;;;5092304;28;20483;-72
2023/12/28 03:35:06;;;;;;;17.75;4.60;;;;;;;;;;5093636;28;20070;-72
2023/12/28 03:37:32;;;;;;;11.20;3.70;;;;;;;;;;5094738;28;20401;-72
2023/12/28 03:39:58;;;;;;;10.13;3.83;;;;;;;;;;5093462;28;20035;-73
2023/12/28 03:42:24;;;;;;;8.68;3.90;;;;;;;;;;5093899;28;20042;-80
2023/12/28 03:44:50;;;;;;;10.93;3.90;;;;;;;;;;5096262;28;20036;-81
2023/12/28 03:47:16;;;;;;;11.52;4.60;;;;;;;;;;5094495;28;20024;-77
2023/12/28 03:49:42;;;;;;;10.25;3.95;;;;;;;;;;5092022;28;20071;-76
2023/12/28 03:52:08;;;;;;;9.75;4.10;;;;;;;;;;5092045;28;20497;-77
2023/12/28 03:54:34;;;;;;;9.10;3.70;;;;;;;;;;5091930;28;20107;-75
2023/12/28 03:57:00;;;;;;;10.48;3.78;;;;;;;;;;5091982;28;20027;-76
2023/12/28 03:59:26;;;;;;;14.32;4.32;;;;;;;;;;5092345;28;20024;-77
2023/12/28 04:01:52;;;;;;;8.57;3.55;;;;;;;;;;5094105;28;20032;-78
2023/12/28 04:04:18;;;;;;;14.00;4.15;;;;;;;;;;5094477;28;20043;-79
2023/12/28 04:06:44;;;;;;;9.05;3.90;;;;;;;;;;5093890;28;20386;-78
2023/12/28 04:09:12;;;;;;;11.00;4.07;;;;;;;;;;5111068;28;20031;-77
2023/12/28 04:11:38;;;;;;;11.75;4.43;;;;;;;;;;5104481;28;20113;-78
2023/12/28 04:14:04;;;;;;;13.75;4.13;;;;;;;;;;5107765;28;20055;-77
2023/12/28 04:16:30;;;;;;;12.98;4.30;;;;;;;;;;5109926;28;20083;-76
2023/12/28 04:18:56;;;;;;;11.85;4.13;;;;;;;;;;5101169;28;20111;-79
2023/12/28 04:21:22;;;;;;;9.27;4.05;;;;;;;;;;5100667;28;20059;-79
2023/12/28 04:23:48;;;;;;;9.65;4.40;;;;;;;;;;5096672;28;20008;-77
2023/12/28 04:26:14;;;;;;;11.15;4.32;;;;;;;;;;5108702;28;20344;-77
2023/12/28 04:28:40;;;;;;;18.90;4.20;;;;;;;;;;5101183;28;20020;-78
2023/12/28 04:31:06;;;;;;;9.02;3.67;;;;;;;;;;5103561;28;20047;-79
2023/12/28 04:33:33;;;;;;;10.10;4.10;;;;;;;;;;5113035;28;20028;-77
2023/12/28 04:36:06;;;;;;;12.20;4.10;;;;;;;;;;5112048;28;20023;-76
2023/12/28 04:38:32;;;;;;;12.45;4.53;;;;;;;;;;5118924;28;20028;-76
2023/12/28 04:40:59;;;;;;;14.43;4.93;;;;;;;;;;5119767;28;20042;-75
2023/12/28 04:43:25;;;;;;;16.30;4.70;;;;;;;;;;5118768;28;20024;-75
2023/12/28 04:45:51;;;;;;;10.82;4.13;;;;;;;;;;5119221;28;20026;-75
2023/12/28 04:48:23;;;;;;;10.55;4.00;;;;;;;;;;5119219;28;20019;-74
2023/12/28 04:50:49;;;;;;;12.25;3.95;;;;;;;;;;5119393;28;20016;-78
2023/12/28 04:53:15;;;;;;;11.38;5.18;;;;;;;;;;5119907;28;20034;-76
2023/12/28 04:55:41;;;;;;;20.45;4.25;;;;;;;;;;5119048;28;20024;-76
2023/12/28 04:58:07;;;;;;;11.85;4.22;;;;;;;;;;5118776;28;20069;-76
2023/12/28 05:00:33;;;;;;;9.98;4.15;;;;;;;;;;5119797;28;20024;-77
2023/12/28 05:02:59;;;;;;;10.88;3.70;;;;;;;;;;5124406;28;20049;-76
2023/12/28 05:05:25;;;;;;;13.43;4.38;;;;;;;;;;5121463;28;20024;-78
2023/12/28 05:07:51;;;;;;;10.32;3.95;;;;;;;;;;5118934;28;20024;-77
2023/12/28 05:10:17;;;;;;;9.70;4.03;;;;;;;;;;5121909;28;20069;-78
2023/12/28 05:12:43;;;;;;;11.48;4.40;;;;;;;;;;5102544;28;20024;-75
2023/12/28 05:15:09;;;;;;;21.60;4.72;;;;;;;;;;5119218;28;20023;-76
2023/12/28 05:17:35;;;;;;;12.07;4.13;;;;;;;;;;5121760;28;20034;-76
2023/12/28 05:20:01;;;;;;;12.52;4.45;;;;;;;;;;5123616;28;20023;-76
2023/12/28 05:22:27;;;;;;;17.90;4.40;;;;;;;;;;5120270;28;20520;-76
2023/12/28 05:24:53;;;;;;;11.38;4.75;;;;;;;;;;5118958;28;20050;-76
2023/12/28 05:27:19;;;;;;;13.07;3.50;;;;;;;;;;5119552;28;20028;-77
2023/12/28 05:29:45;;;;;;;16.23;5.03;;;;;;;;;;5118775;28;20024;-76
2023/12/28 05:32:11;;;;;;;12.18;4.68;;;;;;;;;;5122859;28;20035;-78
2023/12/28 05:34:37;;;;;;;12.88;4.38;;;;;;;;;;5123567;28;20072;-75
2023/12/28 05:37:03;;;;;;;14.95;4.40;;;;;;;;;;5120453;28;20075;-75
2023/12/28 05:39:29;;;;;;;11.52;4.38;;;;;;;;;;5118113;28;20023;-75
2023/12/28 05:41:55;;;;;;;13.23;5.07;;;;;;;;;;5118534;28;20023;-80
2023/12/28 05:44:21;;;;;;;12.75;4.78;;;;;;;;;;5118519;28;20023;-77
2023/12/28 05:46:47;;;;;;;9.73;4.82;;;;;;;;;;5118983;28;20023;-74
2023/12/28 05:49:13;;;;;;;13.55;5.00;;;;;;;;;;5116802;28;20114;-76
2023/12/28 05:51:42;;;;;;;13.68;4.70;;;;;;;;;;5114417;28;20069;-75
2023/12/28 05:54:08;;;;;;;9.23;4.22;;;;;;;;;;5114804;28;20518;-76
2023/12/28 05:56:34;;;;;;;11.95;3.92;;;;;;;;;;5115003;28;20039;-77
2023/12/28 05:59:00;;;;;;;17.05;4.30;;;;;;;;;;5114476;28;20023;-77
2023/12/28 06:01:27;;;;;;;10.10;4.32;;;;;;;;;;5116848;28;20028;-77
2023/12/28 06:03:53;;;;;;;11.10;4.15;;;;;;;;;;5117965;28;20016;-77
2023/12/28 06:06:20;;;;;;;9.82;4.32;;;;;;;;;;5118895;28;20028;-76
2023/12/28 06:08:46;;;;;;;16.23;4.65;;;;;;;;;;5118846;28;20023;-76
2023/12/28 06:11:12;;;;;;;13.95;4.45;;;;;;;;;;5115157;28;20450;-75
2023/12/28 06:13:38;;;;;;;12.93;4.60;;;;;;;;;;5114095;28;20073;-76
2023/12/28 06:16:04;;;;;;;11.57;4.35;;;;;;;;;;5117833;28;20027;-78
2023/12/28 06:18:31;;;;;;;15.52;4.93;;;;;;;;;;5098243;28;20478;-77
2023/12/28 06:20:57;;;;;;;15.50;4.60;;;;;;;;;;5117151;28;20024;-78
2023/12/28 06:23:23;;;;;;;12.60;4.80;;;;;;;;;;5118004;28;20043;-77
2023/12/28 06:25:49;;;;;;;11.95;4.32;;;;;;;;;;5114186;28;20023;-77
2023/12/28 06:28:15;;;;;;;13.50;4.50;;;;;;;;;;5114690;28;20102;-79
2023/12/28 06:30:41;;;;;;;10.27;4.35;;;;;;;;;;5114515;28;20023;-80
2023/12/28 06:33:07;;;;;;;17.05;4.22;;;;;;;;;;5103094;28;20032;-81
2023/12/28 06:35:33;;;;;;;18.55;4.47;;;;;;;;;;5108736;28;20023;-80
2023/12/28 06:37:59;;;;;;;10.52;3.97;;;;;;;;;;5116484;28;20030;-80
2023/12/28 06:40:25;;;;;;;13.00;4.60;;;;;;;;;;5110475;28;20016;-75
2023/12/28 06:42:51;;;;;;;18.02;4.60;;;;;;;;;;5109466;28;20020;-77
2023/12/28 06:45:17;;;;;;;13.45;4.07;;;;;;;;;;5117437;28;20031;-77
2023/12/28 06:47:43;;;;;;;19.40;4.82;;;;;;;;;;5114813;28;20020;-78
2023/12/28 06:50:09;;;;;;;15.90;4.43;;;;;;;;;;5113902;28;20062;-77
2023/12/28 06:52:35;;;;;;;12.52;4.40;;;;;;;;;;5108426;28;20024;-76
2023/12/28 06:55:02;;;;;;;13.82;4.03;;;;;;;;;;5092863;28;20028;-77
2023/12/28 06:57:28;;;;;;;9.70;3.90;;;;;;;;;;5093538;28;20017;-78
2023/12/28 06:59:54;;;;;;;10.93;4.22;;;;;;;;;;5094253;28;20034;-77
2023/12/28 07:02:20;;;;;;;13.45;4.30;;;;;;;;;;5095276;28;20035;-76
2023/12/28 07:04:46;;;;;;;18.02;4.13;;;;;;;;;;5095585;28;20020;-74
2023/12/28 07:07:12;;;;;;;19.13;4.30;;;;;;;;;;5093307;28;20406;-76
2023/12/28 07:09:38;;;;;;;16.70;4.80;;;;;;;;;;5097499;28;20039;-78
2023/12/28 07:12:04;;;;;;;13.68;4.15;;;;;;;;;;5096347;28;20028;-76
2023/12/28 07:14:30;;;;;;;18.23;4.10;;;;;;;;;;5079078;28;20432;-77
2023/12/28 07:16:56;;;;;;;15.38;4.05;;;;;;;;;;5099712;28;20020;-77
2023/12/28 07:19:22;;;;;;;23.20;4.00;;;;;;;;;;5097297;28;20080;-77
2023/12/28 07:21:48;;;;;;;11.40;3.67;;;;;;;;;;5094962;28;20406;-78
2023/12/28 07:24:14;;;;;;;14.10;4.30;;;;;;;;;;5098739;28;20020;-76
2023/12/28 07:26:40;;;;;;;16.02;4.60;;;;;;;;;;5093417;28;20028;-77
2023/12/28 07:29:06;;;;;;;10.85;3.83;;;;;;;;;;5093008;28;20031;-79
2023/12/28 07:31:32;;;;;;;17.05;4.55;;;;;;;;;;5094184;28;20054;-78
2023/12/28 07:33:58;;;;;;;14.88;3.85;;;;;;;;;;5094412;28;20043;-77
2023/12/28 07:36:24;;;;;;;17.33;4.10;;;;;;;;;;5095669;28;20054;-77
2023/12/28 07:38:50;;;;;;;14.20;3.70;;;;;;;;;;5081711;28;20028;-78
2023/12/28 07:41:16;;;;;;;11.45;4.30;;;;;;;;;;5098550;28;20020;-78
2023/12/28 07:43:43;;;;;;;22.77;4.80;;;;;;;;;;5095344;28;20478;-78
2023/12/28 07:46:09;;;;;;;14.20;4.25;;;;;;;;;;5092903;28;20091;-77
2023/12/28 07:48:35;;;;;;;17.95;3.72;;;;;;;;;;5093228;28;20028;-77
2023/12/28 07:51:07;;;;;;;20.73;4.32;;;;;;;;;;5092818;28;20031;-75
2023/12/28 07:53:33;;;;;;;18.92;3.83;;;;;;;;;;5092429;28;20111;-77
2023/12/28 07:55:59;;;;;;;17.42;4.32;;;;;;;;;;5092272;28;20070;-75
2023/12/28 07:58:25;;;;;;;12.55;3.88;;;;;;;;;;5092048;28;20020;-77
2023/12/28 08:00:51;;;;;;;18.17;4.00;;;;;;;;;;5091967;28;20028;-77
2023/12/28 08:03:17;;;;;;;19.83;3.67;;;;;;;;;;5093025;28;20099;-78
2023/12/28 08:05:43;;;;;;;16.73;3.30;;;;;;;;;;5091913;28;20055;-81
2023/12/28 08:08:09;;;;;;;14.63;3.55;;;;;;;;;;5093601;28;20024;-77
2023/12/28 08:10:35;;;;;;;18.77;3.80;;;;;;;;;;5092224;28;20376;-76
2023/12/28 08:13:01;;;;;;;19.88;4.05;;;;;;;;;;5091713;28;20024;-76
2023/12/28 08:15:27;;;;;;;25.45;3.63;;;;;;;;;;5092239;28;20050;-75
2023/12/28 08:17:53;;;;;;;16.65;3.67;;;;;;;;;;5091451;28;20036;-72
2023/12/28 08:20:19;;;;;;;18.80;3.67;;;;;;;;;;5091258;28;20031;-71
2023/12/28 08:22:45;;;;;;;17.55;3.47;;;;;;;;;;5092204;28;20024;-74
2023/12/28 08:25:11;;;;;;;20.30;3.67;;;;;;;;;;5092128;28;20505;-77
2023/12/28 08:27:37;;;;;;;15.27;3.40;;;;;;;;;;5092026;28;20028;-75
2023/12/28 08:30:04;;;;;;;17.33;3.72;;;;;;;;;;5091516;28;20074;-78
2023/12/28 08:32:30;;;;;;;17.65;4.07;;;;;;;;;;5091899;28;20085;-74
2023/12/28 08:34:56;;;;;;;16.75;3.42;;;;;;;;;;5091659;28;20032;-74
2023/12/28 08:37:23;;;;;;;24.63;3.63;;;;;;;;;;5092508;28;20093;-74
2023/12/28 08:39:48;;;;;;;15.05;4.30;;;;;;;;;;5074782;28;20032;-76
2023/12/28 08:42:14;;;;;;;28.95;5.00;;;;;;;;;;5091377;28;20532;-74
2023/12/28 08:44:40;;;;;;;20.85;3.45;;;;;;;;;;5091411;28;20020;-74
2023/12/28 08:47:06;;;;;;;19.20;3.92;;;;;;;;;;5091499;28;20402;-74
2023/12/28 08:49:33;;;;;;;19.77;3.45;;;;;;;;;;5091340;28;20048;-76
2023/12/28 08:51:59;;;;;;;15.50;2.80;;;;;;;;;;5091298;28;20164;-77
2023/12/28 08:54:25;;;;;;;20.58;3.45;;;;;;;;;;5091812;28;20095;-75
2023/12/28 08:56:51;;;;;;;21.02;3.45;;;;;;;;;;5104749;28;20442;-75
2023/12/28 08:59:17;;;;;;;14.73;2.95;;;;;;;;;;5092175;28;20095;-78
2023/12/28 09:01:43;;;;;;;17.70;4.07;;;;;;;;;;5091838;28;20035;-80
2023/12/28 09:04:09;;;;;;;18.83;3.35;;;;;;;;;;5093457;28;20027;-76
2023/12/28 09:06:35;;;;;;;20.25;4.65;;;;;;;;;;5092746;28;20020;-77
2023/12/28 09:09:01;;;;;;;19.08;3.42;;;;;;;;;;5093436;28;20030;-76
2023/12/28 09:11:28;;;;;;;18.52;3.92;;;;;;;;;;5092292;28;20032;-78
2023/12/28 09:13:54;;;;;;;21.42;3.08;;;;;;;;;;5093148;28;20051;-78
2023/12/28 09:16:20;;;;;;;22.13;3.72;;;;;;;;;;5094984;28;20028;-76
2023/12/28 09:18:46;;;;;;;20.77;3.50;;;;;;;;;;5097839;28;20027;-75
2023/12/28 09:21:12;;;;;;;30.90;3.88;;;;;;;;;;5086291;28;20085;-75
2023/12/28 09:23:40;;;;;;;21.83;3.85;;;;;;;;;;5095292;28;20475;-73
2023/12/28 09:26:06;;;;;;;15.88;3.10;;;;;;;;;;5103998;28;20016;-74
2023/12/28 09:28:33;;;;;;;20.27;3.35;;;;;;;;;;5106519;28;20024;-79
2023/12/28 09:31:00;;;;;;;23.38;3.67;;;;;;;;;;5077123;28;20043;-75
2023/12/28 09:33:26;;;;;;;18.33;3.55;;;;;;;;;;5095412;28;20024;-78
2023/12/28 09:35:53;;;;;;;21.27;4.05;;;;;;;;;;5094992;28;20074;-75
2023/12/28 09:38:19;;;;;;;17.70;3.00;;;;;;;;;;5096265;28;20462;-83
2023/12/28 09:40:45;;;;;;;18.73;3.72;;;;;;;;;;5096951;28;20054;-76
2023/12/28 09:43:27;;;;;;;20.13;3.38;;;;;;;;;;5097144;28;20067;-77
2023/12/28 09:45:54;;;;;;;23.90;4.22;;;;;;;;;;5096563;28;20374;-75
2023/12/28 09:48:21;;;;;;;18.85;3.92;;;;;;;;;;5094186;28;20028;-77
2023/12/28 09:50:51;;;;;;;21.73;3.63;;;;;;;;;;5094415;28;20020;-76
2023/12/28 09:53:17;;;;;;;24.48;3.95;;;;;;;;;;5096200;28;20091;-74
2023/12/28 09:55:43;;;;;;;28.00;4.07;;;;;;;;;;5095422;28;20101;-74
2023/12/28 09:58:10;;;;;;;29.08;4.28;;;;;;;;;;5095327;28;20050;-75
2023/12/28 10:00:36;;;;;;;28.02;4.50;;;;;;;;;;5094819;28;20475;-74
2023/12/28 10:03:03;;;;;;;26.05;3.53;;;;;;;;;;5076277;28;20031;-73
2023/12/28 10:05:29;;;;;;;23.77;3.92;;;;;;;;;;5094195;28;20020;-76
2023/12/28 10:07:57;;;;;;;26.17;3.83;;;;;;;;;;5093950;28;20471;-77
2023/12/28 10:10:23;;;;;;;24.75;3.78;;;;;;;;;;5094137;28;20106;-77
2023/12/28 10:12:49;;;;;;;22.40;4.45;;;;;;;;;;5095512;28;20024;-77
2023/12/28 10:15:15;;;;;;;29.52;5.35;;;;;;;;;;5095059;28;20035;-77
2023/12/28 10:17:41;;;;;;;27.80;4.20;;;;;;;;;;5094852;28;20107;-76
2023/12/28 10:20:09;;;;;;;21.45;3.67;;;;;;;;;;5094333;28;20062;-80
2023/12/28 10:22:35;;;;;;;20.38;4.40;;;;;;;;;;5102926;28;20482;-76
2023/12/28 10:25:03;;;;;;;33.83;4.68;;;;;;;;;;5092722;28;20051;-73
2023/12/28 10:27:29;;;;;;;22.83;3.33;;;;;;;;;;5107218;28;20048;-75
2023/12/28 10:29:58;;;;;;;25.63;3.85;;;;;;;;;;5114861;28;20027;-76
2023/12/28 10:32:24;;;;;;;21.98;3.72;;;;;;;;;;5115185;28;20042;-77
2023/12/28 10:34:53;;;;;;;22.45;3.60;;;;;;;;;;5116314;28;20023;-76
2023/12/28 10:37:20;;;;;;;22.88;3.70;;;;;;;;;;5114933;28;20603;-74
2023/12/28 10:39:49;;;;;;;25.15;3.90;;;;;;;;;;5114180;28;20045;-75
2023/12/28 10:42:17;;;;;;;26.63;4.45;;;;;;;;;;5114098;28;20114;-76
2023/12/28 10:44:47;;;;;;;21.80;3.90;;;;;;;;;;5097114;28;20019;-76
2023/12/28 10:47:19;;;;;;;26.92;4.10;;;;;;;;;;5115274;28;20028;-77
2023/12/28 10:49:46;;;;;;;29.58;4.65;;;;;;;;;;5096964;28;20023;-76
2023/12/28 10:52:14;;;;;;;22.52;3.83;;;;;;;;;;5117698;28;20041;-76
2023/12/28 10:54:47;;;;;;;21.30;3.72;;;;;;;;;;5114665;28;20048;-76
2023/12/28 10:57:21;;;;;;;22.52;4.18;;;;;;;;;;5115025;28;20025;-75
2023/12/28 11:00:06;;;;;;;30.52;4.72;;;;;;;;;;5113603;28;20486;-74
2023/12/28 11:02:39;;;;;;;26.83;3.67;;;;;;;;;;5113199;28;20095;-76
2023/12/28 11:05:06;;;;;;;25.95;4.45;;;;;;;;;;5113641;28;20075;-74
2023/12/28 11:07:33;;;;;;;28.48;4.60;;;;;;;;;;5113437;28;20509;-76
2023/12/28 11:10:01;;;;;;;26.98;5.88;;;;;;;;;;5116173;28;20045;-76
2023/12/28 11:12:27;;;;;;;30.83;4.10;;;;;;;;;;5112818;28;20052;-75
2023/12/28 11:14:54;;;;;;;27.33;4.90;;;;;;;;;;5110925;28;20023;-75
2023/12/28 11:17:21;;;;;;;28.70;4.53;;;;;;;;;;5112102;28;20350;-76
2023/12/28 11:19:48;;;;;;;33.30;4.50;;;;;;;;;;5111193;28;20024;-74
2023/12/28 11:22:14;;;;;;;34.10;4.80;;;;;;;;;;5109915;28;20411;-74
2023/12/28 11:24:40;;;;;;;25.30;4.00;;;;;;;;;;5110446;28;20035;-74
2023/12/28 11:27:06;;;;;;;24.40;3.65;;;;;;;;;;5110051;28;20027;-75
2023/12/28 11:29:32;;;;;;;26.45;3.97;;;;;;;;;;5110133;28;20039;-76
2023/12/28 11:31:59;;;;;;;28.60;4.80;;;;;;;;;;5092639;28;20462;-74
2023/12/28 11:34:25;;;;;;;27.52;4.53;;;;;;;;;;5110190;28;20019;-76
2023/12/28 11:36:54;;;;;;;33.70;4.63;;;;;;;;;;5110424;28;20049;-75
2023/12/28 11:39:27;;;;;;;38.85;5.07;;;;;;;;;;5112732;28;20020;-75
2023/12/28 11:42:00;;;;;;;37.97;5.53;;;;;;;;;;5110630;28;20015;-74
2023/12/28 11:44:26;;;;;;;31.05;4.80;;;;;;;;;;5117675;28;20014;-75
2023/12/28 11:46:52;;;;;;;33.28;4.93;;;;;;;;;;5112501;28;20072;-75
2023/12/28 11:49:26;;;;;;;30.13;5.05;;;;;;;;;;5111839;28;20091;-76
2023/12/28 11:51:57;;;;;;;33.25;4.70;;;;;;;;;;5111329;28;20106;-77
2023/12/28 11:54:23;;;;;;;28.98;4.60;;;;;;;;;;5111434;28;20019;-74
2023/12/28 11:56:49;;;;;;;29.23;4.45;;;;;;;;;;5111988;28;20079;-76
2023/12/28 11:59:14;;;;;;;28.33;4.53;;;;;;;;;;5112238;28;20051;-76
2023/12/28 12:01:41;;;;;;;27.33;4.75;;;;;;;;;;5110861;28;20034;-75
2023/12/28 12:04:07;;;;;;;39.75;5.03;;;;;;;;;;5109945;28;20008;-75
2023/12/28 12:06:33;;;;;;;27.95;3.95;;;;;;;;;;5109526;28;20094;-75
2023/12/28 12:08:59;;;;;;;29.80;4.38;;;;;;;;;;5110420;28;20102;-75
2023/12/28 12:11:25;;;;;;;30.75;5.47;;;;;;;;;;5109871;28;20019;-76
2023/12/28 12:13:52;;;;;;;29.83;4.20;;;;;;;;;;5109700;28;20109;-75
2023/12/28 12:16:18;;;;;;;31.08;4.40;;;;;;;;;;5110960;28;20023;-76
2023/12/28 12:18:44;;;;;;;38.80;4.65;;;;;;;;;;5111196;28;20020;-76
2023/12/28 12:21:10;;;;;;;28.55;4.32;;;;;;;;;;5104672;28;20490;-78
2023/12/28 12:23:36;;;;;;;32.28;5.15;;;;;;;;;;5112726;28;20181;-74
2023/12/28 12:26:05;;;;;;;37.90;5.00;;;;;;;;;;5108558;28;20482;-74
2023/12/28 12:28:31;;;;;;;28.52;4.85;;;;;;;;;;5090540;28;20020;-74
2023/12/28 12:30:57;;;;;;;33.17;4.45;;;;;;;;;;5090584;28;20024;-75
2023/12/28 12:33:24;;;;;;;37.83;5.43;;;;;;;;;;5090420;28;20474;-75
2023/12/28 12:35:50;;;;;;;35.28;4.80;;;;;;;;;;5092264;28;20066;-74
2023/12/28 12:38:17;;;;;;;37.42;5.45;;;;;;;;;;5091517;28;20109;-75
2023/12/28 12:40:43;;;;;;;34.50;5.20;;;;;;;;;;5091569;28;20367;-75
2023/12/28 12:43:09;;;;;;;42.30;7.00;;;;;;;;;;5090398;28;20039;-74
2023/12/28 12:45:39;;;;;;;45.95;6.30;;;;;;;;;;5094647;28;20020;-77
2023/12/28 12:48:05;;;;;;;37.22;5.85;;;;;;;;;;5091176;28;20024;-74
2023/12/28 12:50:32;;;;;;;28.10;4.50;;;;;;;;;;5091018;28;20082;-74
2023/12/28 12:53:01;;;;;;;38.00;5.55;;;;;;;;;;5095005;28;20024;-75
2023/12/28 12:55:27;;;;;;;36.47;5.40;;;;;;;;;;5096151;28;20028;-74
2023/12/28 12:57:57;;;;;;;30.23;4.75;;;;;;;;;;5095003;28;20024;-76
2023/12/28 13:00:23;;;;;;;29.17;4.15;;;;;;;;;;5095540;28;20024;-75
2023/12/28 13:02:56;;;;;;;35.42;5.35;;;;;;;;;;5096114;28;20024;-75
2023/12/28 13:05:22;;;;;;;36.10;5.47;;;;;;;;;;5097343;28;20024;-76
2023/12/28 13:07:48;;;;;;;31.65;4.55;;;;;;;;;;5100202;28;20083;-75
2023/12/28 13:10:14;;;;;;;34.70;4.82;;;;;;;;;;5095382;28;20109;-74
2023/12/28 13:12:40;;;;;;;31.88;4.78;;;;;;;;;;5101751;28;20036;-75
2023/12/28 13:15:06;;;;;;;30.10;4.18;;;;;;;;;;5097935;28;20098;-76
2023/12/28 13:17:32;;;;;;;26.75;4.20;;;;;;;;;;5097821;28;20107;-73
2023/12/28 13:19:58;;;;;;;37.60;5.43;;;;;;;;;;5095873;28;20503;-74
2023/12/28 13:22:24;;;;;;;34.85;5.40;;;;;;;;;;5095595;28;20100;-76
2023/12/28 13:24:50;;;;;;;36.47;5.07;;;;;;;;;;5095221;28;20024;-76
2023/12/28 13:27:16;;;;;;;30.27;4.93;;;;;;;;;;5095717;28;20465;-76
2023/12/28 13:29:43;;;;;;;30.20;4.25;;;;;;;;;;5097570;28;20020;-75
2023/12/28 13:32:09;;;;;;;34.33;5.00;;;;;;;;;;5103621;28;20079;-74
2023/12/28 13:34:35;;;;;;;27.88;4.70;;;;;;;;;;5092956;28;20113;-75
2023/12/28 13:37:02;;;;;;;39.30;4.65;;;;;;;;;;5098273;28;20019;-75
2023/12/28 13:39:28;;;;;;;30.83;5.13;;;;;;;;;;5097256;28;20028;-80
2023/12/28 13:41:55;;;;;;;35.85;4.55;;;;;;;;;;5096251;28;20031;-76
2023/12/28 13:44:21;;;;;;;32.00;4.57;;;;;;;;;;5112707;28;20016;-74
2023/12/28 13:46:47;;;;;;;36.03;5.88;;;;;;;;;;5095119;28;20079;-75
2023/12/28 13:49:13;;;;;;;33.55;5.18;;;;;;;;;;5092578;28;20054;-74
2023/12/28 13:51:39;;;;;;;33.65;4.70;;;;;;;;;;5106622;28;20028;-75
2023/12/28 13:54:06;;;;;;;29.17;4.22;;;;;;;;;;5109908;28;20023;-74
2023/12/28 13:56:32;;;;;;;28.58;4.25;;;;;;;;;;5101602;28;20109;-75
2023/12/28 13:58:58;;;;;;;30.98;4.70;;;;;;;;;;5097381;28;20458;-75
2023/12/28 14:01:24;;;;;;;32.25;6.07;;;;;;;;;;5113430;28;20027;-75
2023/12/28 14:03:51;;;;;;;47.92;5.40;;;;;;;;;;5092796;28;20024;-76
2023/12/28 14:06:18;;;;;;;35.63;5.78;;;;;;;;;;5108507;28;20020;-75
2023/12/28 14:08:44;;;;;;;34.63;5.47;;;;;;;;;;5098873;28;20041;-75
2023/12/28 14:11:10;;;;;;;30.48;4.50;;;;;;;;;;5111467;28;20020;-75
2023/12/28 14:13:36;;;;;;;43.80;6.15;;;;;;;;;;5097333;28;20100;-75
2023/12/28 14:16:03;;;;;;;31.55;4.80;;;;;;;;;;5111307;28;20024;-78
2023/12/28 14:18:29;;;;;;;44.25;5.18;;;;;;;;;;5115802;28;20016;-77
2023/12/28 14:20:55;;;;;;;46.40;6.30;;;;;;;;;;5099919;28;20054;-77
2023/12/28 14:23:21;;;;;;;30.70;4.53;;;;;;;;;;5114101;28;20024;-75
2023/12/28 14:25:53;;;;;;;32.97;5.00;;;;;;;;;;5112255;28;20039;-74
2023/12/28 14:28:19;;;;;;;37.80;4.93;;;;;;;;;;5115811;28;20016;-74